Data for 01/05/2007

Time Sea-Level Adjusted Pressure Absolute Pressure Temperature Relative Humidity Dew Point   
(mb) (inHg) (mb) (inHg) (C) (F) (%) (C) (F)
00:05 1010 29.83 840 24.81 -5.7 21.8 64 -11.5 11.3
00:10 1010 29.83 840 24.81 -5.6 22 62 -11.7 10.9
00:15 1010 29.83 840 24.81 -5.5 22 64 -11.3 11.6
00:20 1010 29.83 840 24.81 -5.6 21.9 65 -11.2 11.8
00:25 1010 29.83 840 24.81 -5.7 21.8 66 -11.1 11.9
00:30 1010 29.83 840 24.81 -5.6 21.9 65 -11.3 11.7
00:35 1010 29.83 840 24.81 -5.7 21.7 65 -11.4 11.5
00:40 1010 29.83 840 24.81 -5.9 21.3 67 -11.2 11.8
00:45 1011 29.85 840 24.81 -6.1 21 66 -11.5 11.3
00:50 1011 29.85 840 24.81 -6.1 21 65 -11.6 11.1
00:55 1011 29.85 840 24.81 -6.1 21.1 65 -11.6 11.2
01:00 1011 29.85 840 24.81 -6.1 21 66 -11.5 11.2
01:05 1011 29.85 840 24.81 -6.1 21 66 -11.4 11.4
01:10 1011 29.85 840 24.81 -6.2 20.8 67 -11.5 11.4
01:15 1011 29.85 840 24.81 -6.2 20.8 66 -11.5 11.3
01:20 1011 29.85 840 24.81 -6.2 20.9 68 -11.2 11.9
01:25 1011 29.85 840 24.81 -6.5 20.4 68 -11.5 11.4
01:30 1011 29.85 840 24.81 -6.9 19.6 68 -11.8 10.7
01:35 1011 29.85 840 24.81 -6.9 19.6 69 -11.6 11.1
01:40 1011 29.85 840 24.81 -6.9 19.6 68 -11.9 10.5
01:45 1011 29.85 840 24.81 -7 19.4 69 -11.8 10.7
01:50 1011 29.85 840 24.81 -7 19.4 68 -12 10.5
01:55 1011 29.85 840 24.81 -7 19.5 67 -12.1 10.1
02:00 1011 29.85 841 24.83 -7 19.4 67 -12.1 10.2
02:05 1011 29.85 841 24.83 -6.8 19.7 67 -12 10.4
02:10 1011 29.85 841 24.83 -7.1 19.2 68 -12 10.3
02:15 1012 29.88 841 24.83 -7 19.5 67 -12.1 10.3
02:20 1012 29.88 841 24.83 -6.6 20.1 66 -11.8 10.7
02:25 1012 29.88 841 24.83 -6.4 20.5 67 -11.6 11.2
02:30 1012 29.88 841 24.83 -6.3 20.7 65 -11.8 10.7
02:35 1012 29.88 841 24.83 -6.4 20.5 64 -12.1 10.2
02:40 1012 29.88 841 24.83 -6.3 20.6 64 -12 10.4
02:45 1013 29.91 842 24.86 -6.3 20.7 65 -11.8 10.7
02:50 1013 29.91 842 24.86 -6 21.2 66 -11.4 11.4
02:55 1013 29.91 842 24.86 -5.6 21.8 66 -10.9 12.3
03:00 1013 29.91 842 24.86 -5.4 22.3 70 -10.1 13.8
03:05 1013 29.91 842 24.86 -5.4 22.3 74 -9.3 15.3
03:10 1013 29.91 842 24.86 -5.5 22.1 79 -8.6 16.5
03:15 1013 29.91 842 24.86 -5.7 21.8 82 -8.3 17.1
03:20 1013 29.91 842 24.86 -5.9 21.3 86 -8 17.6
03:25 1013 29.91 842 24.86 -6.1 21 88 -7.9 17.8
03:30 1013 29.91 843 24.89 -6.2 20.9 88 -7.8 18
03:35 1013 29.91 843 24.89 -6.1 21 89 -7.7 18.2
03:40 1014 29.94 843 24.89 -6.2 20.9 90 -7.6 18.3
03:45 1014 29.94 843 24.89 -6.2 20.9 90 -7.5 18.4
03:50 1014 29.94 843 24.89 -6.3 20.7 91 -7.5 18.5
03:55 1014 29.94 843 24.89 -6.3 20.6 92 -7.4 18.6
04:00 1014 29.94 843 24.89 -6.3 20.7 92 -7.4 18.6
04:05 1014 29.94 843 24.89 -6.3 20.7 92 -7.3 18.8
04:10 1014 29.94 843 24.89 -6.2 20.8 92 -7.3 18.9
04:15 1014 29.94 843 24.89 -6.2 20.8 91 -7.4 18.6
04:20 1014 29.94 843 24.89 -6.6 20.2 93 -7.5 18.4
04:25 1014 29.94 844 24.92 -6.5 20.3 93 -7.5 18.5
04:30 1014 29.94 844 24.92 -6.5 20.4 92 -7.5 18.5
04:35 1014 29.94 844 24.92 -6.5 20.2 91 -7.8 18
04:40 1015 29.97 844 24.92 -6.8 19.7 91 -8.1 17.4
04:45 1015 29.97 844 24.92 -7.1 19.3 91 -8.3 17.1
04:50 1015 29.97 844 24.92 -7.2 19 91 -8.4 16.9
04:55 1015 29.97 844 24.92 -7.2 19.1 91 -8.4 16.9
05:00 1015 29.97 844 24.92 -7 19.4 90 -8.4 17
05:05 1015 29.97 844 24.92 -7 19.4 90 -8.3 17
05:10 1015 29.97 844 24.92 -7 19.4 90 -8.3 17
05:15 1015 29.97 844 24.92 -6.8 19.7 89 -8.3 17
05:20 1015 29.97 844 24.92 -6.8 19.8 89 -8.3 17.1
05:25 1015 29.97 844 24.92 -6.8 19.7 89 -8.4 17
05:30 1015 29.97 844 24.92 -7 19.5 89 -8.5 16.7
05:35 1015 29.97 844 24.92 -6.8 19.8 87 -8.5 16.6
05:40 1015 29.97 844 24.92 -6.3 20.6 84 -8.5 16.6
05:45 1015 29.97 844 24.92 -5.9 21.3 82 -8.4 16.8
05:50 1015 29.97 845 24.95 -5.6 21.8 80 -8.5 16.6
05:55 1016 30 845 24.95 -5.4 22.2 77 -8.8 16.2
06:00 1016 30 845 24.95 -5.2 22.6 74 -9.2 15.4
06:05 1016 30 845 24.95 -5.1 22.9 72 -9.4 15.1
06:10 1016 30 845 24.95 -4.9 23.1 71 -9.5 15
06:15 1016 30 845 24.95 -4.9 23.2 70 -9.5 14.9
06:20 1016 30 845 24.95 -4.9 23.1 69 -9.8 14.4
06:25 1016 30 845 24.95 -5 23 69 -9.9 14.1
06:30 1016 30 845 24.95 -4.9 23.1 67 -10.2 13.6
06:35 1016 30 845 24.95 -4.9 23.2 66 -10.2 13.6
06:40 1016 30 845 24.95 -4.9 23.2 66 -10.3 13.4
06:45 1016 30 846 24.98 -5 22.9 67 -10.3 13.4
06:50 1017 30.03 846 24.98 -5.1 22.8 66 -10.5 13.1
06:55 1017 30.03 846 24.98 -4.8 23.3 63 -10.9 12.3
07:00 1017 30.03 846 24.98 -4.5 23.9 63 -10.6 13
07:05 1017 30.03 846 24.98 -4.5 24 63 -10.4 13.3
07:10 1017 30.03 846 24.98 -4.5 23.9 65 -10.2 13.6
07:15 1017 30.03 846 24.98 -4.6 23.8 66 -10.1 13.9
07:20 1017 30.03 846 24.98 -4.7 23.5 67 -9.9 14.3
07:25 1017 30.03 846 24.98 -4.9 23.2 70 -9.6 14.7
07:30 1017 30.03 846 24.98 -5.1 22.8 72 -9.5 14.9
07:35 1017 30.03 846 24.98 -5.3 22.5 72 -9.6 14.8
07:40 1017 30.03 846 24.98 -5.4 22.3 71 -9.9 14.2
07:45 1017 30.03 846 24.98 -5.1 22.8 69 -9.9 14.1
07:50 1017 30.03 846 24.98 -5 22.9 71 -9.5 15
07:55 1017 30.03 846 24.98 -5.2 22.6 74 -9.2 15.4
08:00 1017 30.03 846 24.98 -5.4 22.4 75 -9.2 15.5
08:05 1017 30.03 846 24.98 -5.3 22.5 74 -9.2 15.5
08:10 1017 30.03 846 24.98 -5.1 22.7 74 -9.1 15.5
08:15 1017 30.03 847 25.01 -5.1 22.7 75 -8.8 16.1
08:20 1017 30.03 847 25.01 -5.3 22.5 77 -8.7 16.4
08:25 1017 30.03 847 25.01 -5.4 22.3 78 -8.7 16.3
08:30 1018 30.06 847 25.01 -5.4 22.3 76 -9 15.8
08:35 1018 30.06 847 25.01 -5.2 22.6 74 -9.1 15.6
08:40 1018 30.06 847 25.01 -5.1 22.8 73 -9.2 15.5
08:45 1018 30.06 847 25.01 -5 23 71 -9.5 15
08:50 1018 30.06 847 25.01 -4.9 23.3 66 -10.3 13.4
08:55 1018 30.06 847 25.01 -4.7 23.6 63 -10.7 12.7
09:00 1018 30.06 847 25.01 -4.5 23.8 63 -10.5 13.2
09:05 1018 30.06 847 25.01 -4.6 23.7 64 -10.3 13.4
09:10 1018 30.06 847 25.01 -4.8 23.4 66 -10.2 13.6
09:15 1018 30.06 847 25.01 -5 23 73 -9.1 15.6
09:20 1018 30.06 848 25.04 -5.2 22.6 75 -9 15.8
09:25 1019 30.09 848 25.04 -5.3 22.5 74 -9.3 15.2
09:30 1019 30.09 848 25.04 -5.1 22.8 71 -9.6 14.7
09:35 1019 30.09 848 25.04 -5.1 22.8 66 -10.5 13
09:40 1019 30.09 848 25.04 -4.9 23.1 62 -11.2 11.9
09:45 1019 30.09 848 25.04 -4.7 23.5 57 -12.1 10.3
09:50 1019 30.09 848 25.04 -4.6 23.7 56 -12.1 10.2
09:55 1019 30.09 848 25.04 -4.6 23.6 57 -11.9 10.5
10:00 1019 30.09 848 25.04 -4.7 23.5 56 -12.1 10.2
10:05 1019 30.09 848 25.04 -4.8 23.4 57 -12.1 10.1
10:10 1019 30.09 848 25.04 -4.7 23.5 56 -12.2 10.1
10:15 1019 30.09 848 25.04 -4.9 23.2 56 -12.3 9.9
10:20 1019 30.09 848 25.04 -5 23 57 -12.3 9.9
10:25 1019 30.09 848 25.04 -5.3 22.5 58 -12.3 9.9
10:30 1019 30.09 848 25.04 -5.3 22.5 59 -12.2 10.1
10:35 1019 30.09 848 25.04 -5.5 22.2 59 -12.3 9.8
10:40 1019 30.09 848 25.04 -5.6 21.9 59 -12.5 9.5
10:45 1019 30.09 848 25.04 -5.6 21.9 59 -12.4 9.6
10:50 1019 30.09 848 25.04 -5.4 22.2 58 -12.5 9.4
10:55 1019 30.09 848 25.04 -5.4 22.2 58 -12.5 9.5
11:00 1019 30.09 848 25.04 -5.8 21.5 59 -12.6 9.3
11:05 1019 30.09 848 25.04 -6 21.2 56 -13.4 7.9
11:10 1019 30.09 848 25.04 -5.4 22.2 51 -14 6.8
11:15 1019 30.09 848 25.04 -4.4 24.1 46 -14.4 6.2
11:20 1019 30.09 848 25.04 -4 24.8 44 -14.4 6.1
11:25 1019 30.09 848 25.04 -3.9 25.1 43 -14.6 5.7
11:30 1019 30.09 848 25.04 -3.2 26.2 43 -14.2 6.5
11:35 1019 30.09 848 25.04 -3.3 26.1 41 -14.6 5.7
11:40 1019 30.09 848 25.04 -3.3 26.2 40 -15 4.9
11:45 1019 30.09 848 25.04 -2.9 26.9 39 -14.9 5.3
11:50 1019 30.09 848 25.04 -2.5 27.5 38 -14.8 5.3
11:55 1019 30.09 848 25.04 -2.5 27.4 39 -14.7 5.5
12:00 1019 30.09 848 25.04 -3.2 26.3 40 -14.8 5.4
12:05 1019 30.09 848 25.04 -3.4 25.8 41 -14.9 5.2
12:10 1019 30.09 848 25.04 -3.5 25.7 41 -15 5
12:15 1019 30.09 848 25.04 -3.6 25.5 39 -15.5 4.1
12:20 1019 30.09 848 25.04 -3.6 25.6 40 -15.2 4.6
12:25 1018 30.06 848 25.04 -3.8 25.1 40 -15.6 3.9
12:30 1018 30.06 848 25.04 -3.5 25.7 38 -16 3.3
12:35 1018 30.06 848 25.04 -2.9 26.7 37 -15.8 3.5
12:40 1018 30.06 848 25.04 -2.5 27.5 35 -15.8 3.5
12:45 1018 30.06 848 25.04 -2.4 27.7 35 -15.9 3.4
12:50 1018 30.06 848 25.04 -2.5 27.6 36 -15.5 4.2
12:55 1018 30.06 848 25.04 -2.6 27.4 36 -15.8 3.5
13:00 1018 30.06 848 25.04 -2.4 27.7 34 -16.4 2.5
13:05 1018 30.06 848 25.04 -2.2 28.1 33 -16.5 2.4
13:10 1018 30.06 848 25.04 -1.9 28.5 32 -16.6 2.2
13:15 1018 30.06 848 25.04 -1.9 28.6 32 -16.4 2.5
13:20 1018 30.06 848 25.04 -1.9 28.6 32 -16.5 2.3
13:25 1018 30.06 847 25.01 -1.9 28.6 32 -16.6 2.1
13:30 1018 30.06 847 25.01 -2.2 28 33 -16.5 2.2
13:35 1018 30.06 847 25.01 -2.6 27.3 34 -16.6 2.2
13:40 1018 30.06 848 25.04 -2.8 27 33 -17 1.4
13:45 1018 30.06 848 25.04 -2.7 27.1 35 -16.2 2.9
13:50 1019 30.09 848 25.04 -2.7 27.2 35 -16.2 2.8
13:55 1018 30.06 848 25.04 -2.5 27.4 34 -16.4 2.5
14:00 1018 30.06 848 25.04 -2.6 27.2 35 -16 3.1
14:05 1019 30.09 848 25.04 -2.6 27.4 36 -15.6 3.9
14:10 1019 30.09 848 25.04 -2.8 27 35 -16.1 3
14:15 1019 30.09 848 25.04 -2.7 27.1 35 -16.1 3.1
14:20 1019 30.09 848 25.04 -2.5 27.4 36 -15.6 3.9
14:25 1019 30.09 848 25.04 -2.7 27.1 35 -16.1 3
14:30 1019 30.09 848 25.04 -2.9 26.7 35 -16.4 2.4
14:35 1019 30.09 848 25.04 -2.9 26.8 35 -16.3 2.7
14:40 1019 30.09 848 25.04 -2.2 28 33 -16.3 2.7
14:45 1019 30.09 848 25.04 -1.6 29.1 33 -16 3.2
14:50 1019 30.09 848 25.04 -1.7 28.9 34 -15.5 4
14:55 1019 30.09 848 25.04 -1.6 29.1 32 -16.2 2.9
15:00 1019 30.09 848 25.04 -1.7 29 32 -16.3 2.7
15:05 1019 30.09 848 25.04 -1.8 28.8 32 -16.3 2.7
15:10 1019 30.09 848 25.04 -1.8 28.7 33 -16.1 3
15:15 1019 30.09 848 25.04 -1.8 28.7 35 -15.4 4.2
15:20 1019 30.09 848 25.04 -2.1 28.3 34 -16 3.2
15:25 1019 30.09 848 25.04 -2.1 28.2 34 -15.9 3.3
15:30 1019 30.09 848 25.04 -2.1 28.2 35 -15.8 3.5
15:35 1019 30.09 849 25.07 -1.9 28.6 33 -16 3.2
15:40 1019 30.09 849 25.07 -2 28.5 33 -16.1 3.1
15:45 1019 30.09 849 25.07 -2.3 27.9 34 -16.1 3
15:50 1019 30.09 849 25.07 -2.3 27.8 33 -16.6 2.2
15:55 1019 30.09 848 25.04 -2.6 27.4 34 -16.6 2.2
16:00 1019 30.09 848 25.04 -2.6 27.3 34 -16.4 2.5
16:05 1019 30.09 849 25.07 -2.9 26.9 35 -16.4 2.5
16:10 1019 30.09 849 25.07 -3.4 25.9 35 -16.7 1.9
16:15 1019 30.09 849 25.07 -3.5 25.7 35 -17 1.5
16:20 1019 30.09 849 25.07 -3.3 26.1 36 -16.5 2.4
16:25 1019 30.09 849 25.07 -3.4 25.8 36 -16.6 2.2
16:30 1019 30.09 849 25.07 -3.7 25.3 35 -17 1.4
16:35 1019 30.09 849 25.07 -4 24.8 35 -17.2 1.1
16:40 1019 30.09 849 25.07 -4 24.8 37 -16.6 2
16:45 1019 30.09 849 25.07 -4.2 24.4 37 -17 1.4
16:50 1020 30.12 849 25.07 -4.4 24 38 -16.7 2
16:55 1020 30.12 849 25.07 -4.7 23.5 39 -16.6 2.1
17:00 1020 30.12 849 25.07 -5.5 22.1 40 -16.9 1.5
17:05 1020 30.12 849 25.07 -6.2 20.8 41 -17.6 0.4
17:10 1020 30.12 849 25.07 -6.3 20.6 41 -17.4 0.6
17:15 1019 30.09 849 25.07 -6.1 21.1 41 -17.3 0.8
17:20 1019 30.09 849 25.07 -6 21.1 41 -17.2 1
17:25 1019 30.09 849 25.07 -6.2 20.9 41 -17.4 0.7
17:30 1019 30.09 849 25.07 -6.3 20.7 42 -17.3 0.9
17:35 1019 30.09 849 25.07 -6.4 20.4 42 -17.3 0.8
17:40 1019 30.09 848 25.04 -6.3 20.6 39 -18 -0.5
17:45 1019 30.09 848 25.04 -5.8 21.5 39 -17.8 -0
17:50 1019 30.09 848 25.04 -5.6 21.8 39 -17.7 0.2
17:55 1019 30.09 848 25.04 -5.2 22.6 38 -17.4 0.8
18:00 1019 30.09 848 25.04 -5.7 21.8 41 -16.9 1.6
18:05 1019 30.09 848 25.04 -6.2 20.9 41 -17.3 0.8
18:10 1019 30.09 848 25.04 -6.4 20.4 42 -17.3 0.8
18:15 1019 30.09 848 25.04 -6.3 20.6 42 -17.2 1
18:20 1019 30.09 848 25.04 -5.5 22 42 -16.6 2.1
18:25 1019 30.09 848 25.04 -5.5 22.1 43 -16.1 2.9
18:30 1019 30.09 849 25.07 -5.7 21.8 45 -15.9 3.5
18:35 1019 30.09 849 25.07 -5.7 21.7 44 -16 3.1
18:40 1019 30.09 848 25.04 -5.7 21.7 46 -15.7 3.7
18:45 1019 30.09 848 25.04 -6.2 20.8 48 -15.6 3.9
18:50 1019 30.09 848 25.04 -6.7 20 49 -15.7 3.7
18:55 1019 30.09 848 25.04 -6.8 19.7 51 -15.4 4.2
19:00 1019 30.09 848 25.04 -7.1 19.3 52 -15.2 4.6
19:05 1019 30.09 848 25.04 -6.9 19.5 53 -14.9 5.2
19:10 1019 30.09 848 25.04 -7.1 19.3 53 -15.2 4.7
19:15 1019 30.09 848 25.04 -7.8 18 55 -15.3 4.4
19:20 1019 30.09 848 25.04 -8 17.6 56 -15.2 4.6
19:25 1019 30.09 848 25.04 -8 17.6 56 -15.3 4.4
19:30 1019 30.09 848 25.04 -7.8 18 56 -15.2 4.7
19:35 1019 30.09 848 25.04 -7.5 18.5 55 -15 5.1
19:40 1019 30.09 848 25.04 -7 19.4 54 -14.9 5.2
19:45 1019 30.09 848 25.04 -6.8 19.8 54 -14.6 5.7
19:50 1019 30.09 848 25.04 -6.8 19.7 54 -14.7 5.5
19:55 1019 30.09 848 25.04 -6.9 19.6 54 -14.8 5.4
20:00 1019 30.09 848 25.04 -6.7 19.9 54 -14.6 5.8
20:05 1019 30.09 848 25.04 -6.6 20.1 53 -14.7 5.5
20:10 1019 30.09 848 25.04 -6.5 20.3 52 -14.9 5.3
20:15 1018 30.06 848 25.04 -6.2 20.8 51 -14.8 5.4
20:20 1018 30.06 847 25.01 -6.2 20.9 51 -14.8 5.4
20:25 1018 30.06 847 25.01 -6.1 21.1 51 -14.7 5.6
20:30 1018 30.06 847 25.01 -6.1 21 52 -14.4 6
20:35 1018 30.06 847 25.01 -6.1 20.9 52 -14.5 5.9
20:40 1018 30.06 847 25.01 -6.2 20.8 53 -14.2 6.4
20:45 1018 30.06 847 25.01 -6.3 20.7 53 -14.4 6.1
20:50 1018 30.06 847 25.01 -6.1 21 49 -15.1 4.9
20:55 1018 30.06 847 25.01 -5.8 21.6 48 -15 4.9
21:00 1018 30.06 847 25.01 -5.7 21.7 49 -14.8 5.3
21:05 1018 30.06 847 25.01 -5.7 21.7 50 -14.7 5.6
21:10 1018 30.06 847 25.01 -6.1 21 53 -14.3 6.2
21:15 1017 30.03 847 25.01 -7.3 18.9 58 -14.3 6.3
21:20 1017 30.03 847 25.01 -7.3 18.9 56 -14.6 5.7
21:25 1017 30.03 847 25.01 -6.9 19.5 55 -14.6 5.7
21:30 1017 30.03 847 25.01 -6.7 20 55 -14.2 6.4
21:35 1017 30.03 847 25.01 -6.4 20.5 54 -14.1 6.6
21:40 1017 30.03 846 24.98 -6.2 20.8 51 -14.7 5.6
21:45 1017 30.03 846 24.98 -5.8 21.6 48 -15.1 4.8
21:50 1017 30.03 846 24.98 -5 23 43 -15.6 3.8
21:55 1017 30.03 846 24.98 -4.6 23.7 42 -15.7 3.8
22:00 1017 30.03 846 24.98 -4.5 23.8 42 -15.7 3.8
22:05 1016 30 846 24.98 -4.5 23.9 43 -15.4 4.2
22:10 1016 30 846 24.98 -4.4 24.1 43 -15.3 4.4
22:15 1016 30 845 24.95 -4.3 24.2 43 -15 4.9
22:20 1016 30 845 24.95 -4.5 23.8 46 -14.5 5.8
22:25 1016 30 845 24.95 -4.8 23.3 46 -14.8 5.4
22:30 1016 30 845 24.95 -4.6 23.7 46 -14.7 5.6
22:35 1016 30 845 24.95 -4.5 23.9 45 -14.6 5.7
22:40 1016 30 845 24.95 -4.5 23.9 46 -14.4 6.1
22:45 1016 30 845 24.95 -4.5 23.9 47 -14.3 6.3
22:50 1016 30 845 24.95 -4.6 23.7 46 -14.5 5.9
22:55 1016 30 845 24.95 -4.6 23.8 45 -14.7 5.6
23:00 1016 30 845 24.95 -4.6 23.7 46 -14.4 6
23:05 1015 29.97 845 24.95 -4.8 23.3 50 -13.7 7.3
23:10 1015 29.97 845 24.95 -5.4 22.3 51 -14 6.8
23:15 1015 29.97 844 24.92 -5.7 21.8 49 -14.8 5.4
23:20 1015 29.97 844 24.92 -5.3 22.4 48 -14.7 5.5
23:25 1015 29.97 844 24.92 -4.8 23.4 47 -14.4 6.1
23:30 1015 29.97 844 24.92 -4.5 24 49 -13.6 7.5
23:35 1015 29.97 844 24.92 -4.5 23.9 49 -13.7 7.3
23:40 1015 29.97 844 24.92 -4.5 23.9 48 -13.9 7.1
23:45 1015 29.97 844 24.92 -4.4 24 48 -13.8 7.2
23:50 1015 29.97 844 24.92 -4.2 24.4 47 -14 6.7
23:55 1015 29.97 844 24.92 -3.8 25.2 45 -14.2 6.5
24:00 1015 29.97 844 24.92 -3.3 26.1 43 -14.2 6.5